Air Sicilia Virtual Airways - Route

Air Sicilia Virtual Airways - SIC062L

( IT ) LICR
Reggio Calabria Airport
REGGIO CALABRIA ( REG )
plane_to ( IT ) LICA
Lamezia Terme Airport
LAMEZIA TERME ( SUF )
Mediterraneo TOUR VFR - LEG: 2

AIRPORT NEAR NAVIGATION AIDS

Type Name Frequency
VOR-DME Reggio Calabria 111000 KHZ
NDB Reggio Calabria 325 KHZ

METAR / TAF
LICR 211250Z 36011KT CAVOK 23/10 Q1017
LICR 211100Z 2112/2212 01012KT CAVOK

RUNWAY INFORMATION

Runway Runway length Runway width Runway elevation Runway displaced threshold Runway heading
11 5574 148 38 0 113
29 5574 148 43 0 293
15 6549 148 84 840 153
33 6549 148 34 164 333

AIRPORT FREQUENCIES

Type Name Frequency
APP APP 120.275 MHZ
TWR TWR 118.25 MHZ

AIRPORT NEAR NAVIGATION AIDS

Type Name Frequency
VOR-DME Lamezia Terme 112500 KHZ

METAR / TAF
LICA 211250Z 27012KT 9999 FEW020 BKN030 19/13 Q1018
LICA 211100Z 2112/2212 27012KT 9999 SCT020

RUNWAY INFORMATION

Runway Runway length Runway width Runway elevation Runway displaced threshold Runway heading
10 7920 148 20 348 99
28 7920 148 39 351 279

AIRPORT FREQUENCIES

Type Name Frequency
APP APP 118.8 MHZ
TWR TWR 119.7 MHZ

Flightplan

passando per Favazzina

Air Sicilia Virtual Airways Fleets

AVAILABLE AIRCRAFTS for route at this time in Reggio Calabria Airport
C172 - Cessna 172 Skyhawk
( US ) Cessna

Aircraft in fleet: 13

69 NM

Distance in nautical miles.

€ 100,00

Ticket price for this flight.

Nr. 2

Leg



12-11-2018
Aerosoft Airport Rio de Janeiro International V2.0 XP

L'Aeroporto Internazionale di Rio de Janeiro-Galeão (IATA: GIG, ICAO: SBGL), costruito nel 1952 nel quartiere di Ilha do Governador ed intitolato al musicista Antônio Carlos Jobim, è il principale aeroporto internazio ....


15-10-2018
Aerosoft A320 Family professional

La gamma di aeromobili A320 è una delle più comuni nei cieli. Questi aerei di linea a doppio-getto a corto e medio raggio si sono dimostrati convenienti, affidabili e prontamente disponibili, rendendoli le opzioni migl ....


10-10-2018
Motore critico ( Critical Engine )

Il motore critico di un velivolo ad ala fissa multi-motore è il motore che, in caso di guasto, influirebbe negativamente sulle prestazioni o sulla capacità di manovra di un aereo. Sui velivoli ad elica, vi è un ....


04-10-2018
Aerosoft Dortmund XP

Scopri il centro della regione della Ruhr su XPlane 11 - lo scenario Dortmund XP è una ricostruzione completa della città di Dortmund per il simulatore di volo targato Laminar. Oltre all'intera area urbana di Dortmu ....


07-08-2018
Aerosoft Professional Flight Planner PFPX

PFPX - Professional Flight Planner X - è un nuovo ed innovativo strumento di pianificazione del volo sviluppato da piloti e dispatcher del mondo reale. È un'aggiunta preziosa e realistica alla tua esperienza di simulaz ....